Time;durP1;ratioP1;P1;durP2;ratioP2;P2;SDS_P1;SDS_P2;PMS_P1;PMS_P2;Temp;Humidity;BMP_temperature;BMP_pressure;BME280_temperature;BME280_humidity;BME280_pressure;Samples;Min_cycle;Max_cycle;Signal;HPM_P1;HPM_P2
2022/08/05 00:02:07;;;;;;;;;;;;;;;;;;5015491;28;19920;-27
2022/08/05 00:04:33;;;;;;;;;;;;;;;;;;5015730;28;20238;-27
2022/08/05 00:06:59;;;;;;;;;;;;;;;;;;5015396;28;20372;-26
2022/08/05 00:09:25;;;;;;;;;;;;;;;;;;5015607;28;20329;-27
2022/08/05 00:11:51;;;;;;;;;;;;;;;;;;5016006;28;20272;-27
2022/08/05 00:14:17;;;;;;;;;;;;;;;;;;5015597;28;19920;-27
2022/08/05 00:16:43;;;;;;;;;;;;;;;;;;5016090;28;20000;-27
2022/08/05 00:19:09;;;;;;;;;;;;;;;;;;5015545;28;20002;-27
2022/08/05 00:21:35;;;;;;;;;;;;;;;;;;5015528;28;19913;-26
2022/08/05 00:24:01;;;;;;;;;;;;;;;;;;5015151;28;19917;-27
2022/08/05 00:26:27;;;;;;;;;;;;;;;;;;5015208;28;20264;-27
2022/08/05 00:28:53;;;;;;;;;;;;;;;;;;5015171;28;19956;-27
2022/08/05 00:31:19;;;;;;;;;;;;;;;;;;5015469;28;20245;-27
2022/08/05 00:33:45;;;;;;;;;;;;;;;;;;5015347;28;19972;-27
2022/08/05 00:36:12;;;;;;;;;;;;;;;;;;5015168;28;20332;-27
2022/08/05 00:38:38;;;;;;;;;;;;;;;;;;5014096;28;19948;-27
2022/08/05 00:41:06;;;;;;;;;;;;;;;;;;5018251;28;19944;-27
2022/08/05 00:43:32;;;;;;;;;;;;;;;;;;5019219;28;20054;-27
2022/08/05 00:45:58;;;;;;;;;;;;;;;;;;5018953;28;19913;-27
2022/08/05 00:48:24;;;;;;;;;;;;;;;;;;5019191;28;19937;-26
2022/08/05 00:50:50;;;;;;;;;;;;;;;;;;5018860;28;19960;-26
2022/08/05 00:53:16;;;;;;;;;;;;;;;;;;5018776;28;19910;-27
2022/08/05 00:55:42;;;;;;;;;;;;;;;;;;5019068;28;19913;-27
2022/08/05 00:58:08;;;;;;;;;;;;;;;;;;5018670;28;19943;-27
2022/08/05 01:00:34;;;;;;;;;;;;;;;;;;5017782;28;19914;-27
2022/08/05 01:03:00;;;;;;;;;;;;;;;;;;5018560;28;19932;-27
2022/08/05 01:05:26;;;;;;;;;;;;;;;;;;5018566;28;19964;-27
2022/08/05 01:07:52;;;;;;;;;;;;;;;;;;5018501;28;19914;-26
2022/08/05 01:10:18;;;;;;;;;;;;;;;;;;5018795;28;20355;-27
2022/08/05 01:12:44;;;;;;;;;;;;;;;;;;5018350;28;20307;-27
2022/08/05 01:15:10;;;;;;;;;;;;;;;;;;5018697;28;19914;-27
2022/08/05 01:17:36;;;;;;;;;;;;;;;;;;5018321;28;19920;-27
2022/08/05 01:20:02;;;;;;;;;;;;;;;;;;5019330;28;19964;-27
2022/08/05 01:22:29;;;;;;;;;;;;;;;;;;5018187;28;19928;-27
2022/08/05 01:24:55;;;;;;;;;;;;;;;;;;5018516;28;19914;-27
2022/08/05 01:27:21;;;;;;;;;;;;;;;;;;5018161;28;19928;-26
2022/08/05 01:29:47;;;;;;;;;;;;;;;;;;5018137;28;19914;-27
2022/08/05 01:32:13;;;;;;;;;;;;;;;;;;5018255;28;19956;-26
2022/08/05 01:34:41;;;;;;;;;;;;;;;;;;5018317;28;19909;-27
2022/08/05 01:37:07;;;;;;;;;;;;;;;;;;5018260;28;20245;-27
2022/08/05 01:39:33;;;;;;;;;;;;;;;;;;5018120;28;19913;-27
2022/08/05 01:41:59;;;;;;;;;;;;;;;;;;5017805;28;20404;-27
2022/08/05 01:44:25;;;;;;;;;;;;;;;;;;5017857;28;19920;-27
2022/08/05 01:46:51;;;;;;;;;;;;;;;;;;5017812;28;20329;-27
2022/08/05 01:49:17;;;;;;;;;;;;;;;;;;5017794;28;19910;-27
2022/08/05 01:51:43;;;;;;;;;;;;;;;;;;5016653;28;19971;-27
2022/08/05 01:54:09;;;;;;;;;;;;;;;;;;5017693;28;19910;-27
2022/08/05 01:56:35;;;;;;;;;;;;;;;;;;5016650;28;20365;-27
2022/08/05 01:59:00;;;;;;;;;;;;;;;;;;5017460;28;19957;-27
2022/08/05 02:01:26;;;;;;;;;;;;;;;;;;5017788;28;19936;-27
2022/08/05 02:03:52;;;;;;;;;;;;;;;;;;5017266;28;19928;-27
2022/08/05 02:06:18;;;;;;;;;;;;;;;;;;5017447;28;19988;-27
2022/08/05 02:08:44;;;;;;;;;;;;;;;;;;5017374;28;19913;-27
2022/08/05 02:11:10;;;;;;;;;;;;;;;;;;5017346;28;19914;-27
2022/08/05 02:13:37;;;;;;;;;;;;;;;;;;5017282;28;19909;-27
2022/08/05 02:16:03;;;;;;;;;;;;;;;;;;5017330;28;19913;-27
2022/08/05 02:18:29;;;;;;;;;;;;;;;;;;5017137;28;19917;-27
2022/08/05 02:20:55;;;;;;;;;;;;;;;;;;5017197;28;20248;-27
2022/08/05 02:23:21;;;;;;;;;;;;;;;;;;5017063;28;19921;-27
2022/08/05 02:25:47;;;;;;;;;;;;;;;;;;5017063;28;20303;-27
2022/08/05 02:28:13;;;;;;;;;;;;;;;;;;5017035;28;19918;-27
2022/08/05 02:30:39;;;;;;;;;;;;;;;;;;5017250;28;19913;-27
2022/08/05 02:33:05;;;;;;;;;;;;;;;;;;5016920;28;19917;-27
2022/08/05 02:35:31;;;;;;;;;;;;;;;;;;5016873;28;19914;-27
2022/08/05 02:37:57;;;;;;;;;;;;;;;;;;5017117;28;19917;-27
2022/08/05 02:40:23;;;;;;;;;;;;;;;;;;5017107;28;19913;-27
2022/08/05 02:42:49;;;;;;;;;;;;;;;;;;5016989;28;19936;-27
2022/08/05 02:45:15;;;;;;;;;;;;;;;;;;5016937;28;19913;-27
2022/08/05 02:47:41;;;;;;;;;;;;;;;;;;5016969;28;20313;-27
2022/08/05 02:50:07;;;;;;;;;;;;;;;;;;5016656;28;19920;-27
2022/08/05 02:52:33;;;;;;;;;;;;;;;;;;5016701;28;20352;-27
2022/08/05 02:54:59;;;;;;;;;;;;;;;;;;5016808;28;19913;-27
2022/08/05 02:57:25;;;;;;;;;;;;;;;;;;5016491;28;19916;-27
2022/08/05 02:59:52;;;;;;;;;;;;;;;;;;5016652;28;20386;-27
2022/08/05 03:02:18;;;;;;;;;;;;;;;;;;5015969;28;19941;-27
2022/08/05 03:04:44;;;;;;;;;;;;;;;;;;5016632;28;19932;-27
2022/08/05 03:07:10;;;;;;;;;;;;;;;;;;5016324;28;19909;-27
2022/08/05 03:09:36;;;;;;;;;;;;;;;;;;5016305;28;19918;-27
2022/08/05 03:12:03;;;;;;;;;;;;;;;;;;5016181;28;20022;-27
2022/08/05 03:14:29;;;;;;;;;;;;;;;;;;5016475;28;19928;-27
2022/08/05 03:16:55;;;;;;;;;;;;;;;;;;5016385;28;20352;-27
2022/08/05 03:19:21;;;;;;;;;;;;;;;;;;5016027;28;19917;-27
2022/08/05 03:21:47;;;;;;;;;;;;;;;;;;5015967;28;19909;-27
2022/08/05 03:24:13;;;;;;;;;;;;;;;;;;5016273;28;20344;-27
2022/08/05 03:26:39;;;;;;;;;;;;;;;;;;5015994;28;19914;-27
2022/08/05 03:29:05;;;;;;;;;;;;;;;;;;5015938;28;20009;-27
2022/08/05 03:31:31;;;;;;;;;;;;;;;;;;5016199;28;20345;-27
2022/08/05 03:33:57;;;;;;;;;;;;;;;;;;5015784;28;19916;-27
2022/08/05 03:36:23;;;;;;;;;;;;;;;;;;5015789;28;19940;-27
2022/08/05 03:38:49;;;;;;;;;;;;;;;;;;5015984;28;19914;-27
2022/08/05 03:41:15;;;;;;;;;;;;;;;;;;5015805;28;20241;-27
2022/08/05 03:43:40;;;;;;;;;;;;;;;;;;5015620;28;19972;-27
2022/08/05 03:46:06;;;;;;;;;;;;;;;;;;5015985;28;20345;-27
2022/08/05 03:48:33;;;;;;;;;;;;;;;;;;5015911;28;19913;-27
2022/08/05 03:50:59;;;;;;;;;;;;;;;;;;5015624;28;19937;-26
2022/08/05 03:53:25;;;;;;;;;;;;;;;;;;5015556;28;19925;-27
2022/08/05 03:55:51;;;;;;;;;;;;;;;;;;5015819;28;20027;-27
2022/08/05 03:58:17;;;;;;;;;;;;;;;;;;5015405;28;19941;-27
2022/08/05 04:00:43;;;;;;;;;;;;;;;;;;5015760;28;19925;-26
2022/08/05 04:03:09;;;;;;;;;;;;;;;;;;5015176;28;19961;-27
2022/08/05 04:05:35;;;;;;;;;;;;;;;;;;5015691;28;19913;-27
2022/08/05 04:08:01;;;;;;;;;;;;;;;;;;5015398;28;20407;-27
2022/08/05 04:10:27;;;;;;;;;;;;;;;;;;5015672;28;19909;-27
2022/08/05 04:12:53;;;;;;;;;;;;;;;;;;5015353;28;19913;-27
2022/08/05 04:15:19;;;;;;;;;;;;;;;;;;5014704;28;20282;-27
2022/08/05 04:17:45;;;;;;;;;;;;;;;;;;5015506;28;19918;-27
2022/08/05 04:20:11;;;;;;;;;;;;;;;;;;5015189;28;20356;-27
2022/08/05 04:22:37;;;;;;;;;;;;;;;;;;5015373;28;19920;-27
2022/08/05 04:25:03;;;;;;;;;;;;;;;;;;5015201;28;20267;-27
2022/08/05 04:27:30;;;;;;;;;;;;;;;;;;5015175;28;20237;-27
2022/08/05 04:29:56;;;;;;;;;;;;;;;;;;5015489;28;19909;-27
2022/08/05 04:32:22;;;;;;;;;;;;;;;;;;5015061;28;19932;-27
2022/08/05 04:34:48;;;;;;;;;;;;;;;;;;5015421;28;19916;-27
2022/08/05 04:37:14;;;;;;;;;;;;;;;;;;5015184;28;20298;-27
2022/08/05 04:39:40;;;;;;;;;;;;;;;;;;5015234;28;19921;-27
2022/08/05 04:42:06;;;;;;;;;;;;;;;;;;5015720;28;20008;-27
2022/08/05 04:44:32;;;;;;;;;;;;;;;;;;5015001;28;20354;-27
2022/08/05 04:46:58;;;;;;;;;;;;;;;;;;5015281;28;19914;-26
2022/08/05 04:49:24;;;;;;;;;;;;;;;;;;5015074;28;19910;-27
2022/08/05 04:51:50;;;;;;;;;;;;;;;;;;5014873;28;19917;-27
2022/08/05 04:54:17;;;;;;;;;;;;;;;;;;5014884;28;20272;-27
2022/08/05 04:56:43;;;;;;;;;;;;;;;;;;5014818;28;20443;-27
2022/08/05 04:59:09;;;;;;;;;;;;;;;;;;5015066;28;20008;-27
2022/08/05 05:01:35;;;;;;;;;;;;;;;;;;5015150;28;20253;-26
2022/08/05 05:04:01;;;;;;;;;;;;;;;;;;5014414;28;19971;-27
2022/08/05 05:06:27;;;;;;;;;;;;;;;;;;5014657;28;19913;-27
2022/08/05 05:08:53;;;;;;;;;;;;;;;;;;5014705;28;19964;-27
2022/08/05 05:11:21;;;;;;;;;;;;;;;;;;5014759;28;19968;-27
2022/08/05 05:13:47;;;;;;;;;;;;;;;;;;5015045;28;20004;-27
2022/08/05 05:16:13;;;;;;;;;;;;;;;;;;5014764;28;20340;-27
2022/08/05 05:18:39;;;;;;;;;;;;;;;;;;5014646;28;19925;-27
2022/08/05 05:21:05;;;;;;;;;;;;;;;;;;5014532;28;19913;-27
2022/08/05 05:23:31;;;;;;;;;;;;;;;;;;5014440;28;19960;-27
2022/08/05 05:25:57;;;;;;;;;;;;;;;;;;5014564;28;19913;-27
2022/08/05 05:28:23;;;;;;;;;;;;;;;;;;5017824;28;19909;-27
2022/08/05 05:30:49;;;;;;;;;;;;;;;;;;5018055;28;19984;-27
2022/08/05 05:33:15;;;;;;;;;;;;;;;;;;5017956;28;19910;-27
2022/08/05 05:35:41;;;;;;;;;;;;;;;;;;5018005;28;19948;-27
2022/08/05 05:38:07;;;;;;;;;;;;;;;;;;5018117;28;19921;-27
2022/08/05 05:40:33;;;;;;;;;;;;;;;;;;5018189;28;19949;-27
2022/08/05 05:42:59;;;;;;;;;;;;;;;;;;5017815;28;19924;-27
2022/08/05 05:45:25;;;;;;;;;;;;;;;;;;5017788;28;19910;-27
2022/08/05 05:47:51;;;;;;;;;;;;;;;;;;5017760;28;19921;-27
2022/08/05 05:50:17;;;;;;;;;;;;;;;;;;5017741;28;19964;-27
2022/08/05 05:52:43;;;;;;;;;;;;;;;;;;5017493;28;19913;-27
2022/08/05 05:55:09;;;;;;;;;;;;;;;;;;5017541;28;19917;-27
2022/08/05 05:57:35;;;;;;;;;;;;;;;;;;5017663;28;20233;-27
2022/08/05 06:00:01;;;;;;;;;;;;;;;;;;5017324;28;19925;-27
2022/08/05 06:02:27;;;;;;;;;;;;;;;;;;5017621;28;19918;-27
2022/08/05 06:04:53;;;;;;;;;;;;;;;;;;5017412;28;19910;-27
2022/08/05 06:07:19;;;;;;;;;;;;;;;;;;5017938;28;19967;-27
2022/08/05 06:09:45;;;;;;;;;;;;;;;;;;5017338;28;19971;-27
2022/08/05 06:12:11;;;;;;;;;;;;;;;;;;5017325;28;20348;-27
2022/08/05 06:14:37;;;;;;;;;;;;;;;;;;5017255;28;19909;-27
2022/08/05 06:17:03;;;;;;;;;;;;;;;;;;5017124;28;20016;-27
2022/08/05 06:19:29;;;;;;;;;;;;;;;;;;5017366;28;19965;-27
2022/08/05 06:21:55;;;;;;;;;;;;;;;;;;5017050;28;19914;-26
2022/08/05 06:24:21;;;;;;;;;;;;;;;;;;5017019;28;19910;-27
2022/08/05 06:26:47;;;;;;;;;;;;;;;;;;5017292;28;19913;-27
2022/08/05 06:29:13;;;;;;;;;;;;;;;;;;5017273;28;19910;-27
2022/08/05 06:31:39;;;;;;;;;;;;;;;;;;5016749;28;19949;-27
2022/08/05 06:34:05;;;;;;;;;;;;;;;;;;5016711;28;19924;-27
2022/08/05 06:36:31;;;;;;;;;;;;;;;;;;5016613;28;19917;-27
2022/08/05 06:38:57;;;;;;;;;;;;;;;;;;5016401;28;19918;-27
2022/08/05 06:41:23;;;;;;;;;;;;;;;;;;5016936;28;19973;-27
2022/08/05 06:43:49;;;;;;;;;;;;;;;;;;5016613;28;19979;-27
2022/08/05 06:46:15;;;;;;;;;;;;;;;;;;5016529;28;19924;-27
2022/08/05 06:48:41;;;;;;;;;;;;;;;;;;5016478;28;19921;-26
2022/08/05 06:51:07;;;;;;;;;;;;;;;;;;5016307;28;20234;-27
2022/08/05 06:53:34;;;;;;;;;;;;;;;;;;5016468;28;19910;-27
2022/08/05 06:56:02;;;;;;;;;;;;;;;;;;5016316;28;19980;-27
2022/08/05 06:58:28;;;;;;;;;;;;;;;;;;5016113;28;19918;-26
2022/08/05 07:00:54;;;;;;;;;;;;;;;;;;5016504;28;19924;-27
2022/08/05 07:03:20;;;;;;;;;;;;;;;;;;5015948;28;20316;-27
2022/08/05 07:05:46;;;;;;;;;;;;;;;;;;5016200;28;20316;-26
2022/08/05 07:08:12;;;;;;;;;;;;;;;;;;5016270;28;19914;-27
2022/08/05 07:10:38;;;;;;;;;;;;;;;;;;5016739;28;19920;-27
2022/08/05 07:18:33;;;;;;;;;;;;;;;;;;5016254;28;20383;-26
2022/08/05 07:20:59;;;;;;;;;;;;;;;;;;5016029;28;19943;-27
2022/08/05 07:23:25;;;;;;;;;;;;;;;;;;5015840;28;20256;-27
2022/08/05 07:25:51;;;;;;;;;;;;;;;;;;5015891;28;20419;-27
2022/08/05 07:28:17;;;;;;;;;;;;;;;;;;5016128;28;20007;-27
2022/08/05 07:30:43;;;;;;;;;;;;;;;;;;5015814;28;19913;-27
2022/08/05 07:33:09;;;;;;;;;;;;;;;;;;5015669;28;19917;-27
2022/08/05 07:35:35;;;;;;;;;;;;;;;;;;5016036;28;19913;-27
2022/08/05 07:38:01;;;;;;;;;;;;;;;;;;5016829;28;20305;-27
2022/08/05 07:40:27;;;;;;;;;;;;;;;;;;5016053;28;19913;-27
2022/08/05 07:42:53;;;;;;;;;;;;;;;;;;5015586;28;19960;-27
2022/08/05 07:45:19;;;;;;;;;;;;;;;;;;5015678;28;19913;-27
2022/08/05 07:47:45;;;;;;;;;;;;;;;;;;5015519;28;20261;-27
2022/08/05 07:50:11;;;;;;;;;;;;;;;;;;5014725;28;19910;-27
2022/08/05 07:52:37;;;;;;;;;;;;;;;;;;5015584;28;20352;-27
2022/08/05 07:55:03;;;;;;;;;;;;;;;;;;5016428;28;20296;-27
2022/08/05 07:57:29;;;;;;;;;;;;;;;;;;5015321;28;19921;-27
2022/08/05 07:59:55;;;;;;;;;;;;;;;;;;5015285;28;19913;-27
2022/08/05 08:02:21;;;;;;;;;;;;;;;;;;5015266;28;19920;-27
2022/08/05 08:04:47;;;;;;;;;;;;;;;;;;5015628;28;19917;-27
2022/08/05 08:07:13;;;;;;;;;;;;;;;;;;5015303;28;19924;-27
2022/08/05 08:09:39;;;;;;;;;;;;;;;;;;5015355;28;20355;-27
2022/08/05 08:12:05;;;;;;;;;;;;;;;;;;5015268;28;19913;-27
2022/08/05 08:14:31;;;;;;;;;;;;;;;;;;5015299;28;19913;-27
2022/08/05 08:16:57;;;;;;;;;;;;;;;;;;5015321;28;19914;-27
2022/08/05 08:19:23;;;;;;;;;;;;;;;;;;5015319;28;19913;-27
2022/08/05 08:21:49;;;;;;;;;;;;;;;;;;5015138;28;19941;-27
2022/08/05 08:24:15;;;;;;;;;;;;;;;;;;5015289;28;19960;-27
2022/08/05 08:26:41;;;;;;;;;;;;;;;;;;5015107;28;19914;-27
2022/08/05 08:29:07;;;;;;;;;;;;;;;;;;5015114;28;20249;-27
2022/08/05 08:31:33;;;;;;;;;;;;;;;;;;5015370;28;19914;-27
2022/08/05 08:33:59;;;;;;;;;;;;;;;;;;5015056;28;19936;-27
2022/08/05 08:36:25;;;;;;;;;;;;;;;;;;5015008;28;19955;-27
2022/08/05 08:38:54;;;;;;;;;;;;;;;;;;5015177;28;20359;-27
2022/08/05 08:41:20;;;;;;;;;;;;;;;;;;5014937;28;19918;-27
2022/08/05 08:43:46;;;;;;;;;;;;;;;;;;5014885;28;19914;-27
2022/08/05 08:46:12;;;;;;;;;;;;;;;;;;5015205;28;19948;-27
2022/08/05 08:48:38;;;;;;;;;;;;;;;;;;5015092;28;19979;-27
2022/08/05 08:51:04;;;;;;;;;;;;;;;;;;5014834;28;19914;-27
2022/08/05 08:53:30;;;;;;;;;;;;;;;;;;5014852;28;20323;-27
2022/08/05 08:55:56;;;;;;;;;;;;;;;;;;5014844;28;19971;-27
2022/08/05 08:58:21;;;;;;;;;;;;;;;;;;5014805;28;19924;-27
2022/08/05 09:00:47;;;;;;;;;;;;;;;;;;5015835;28;19913;-27
2022/08/05 09:03:13;;;;;;;;;;;;;;;;;;5018271;28;19932;-27
2022/08/05 09:05:39;;;;;;;;;;;;;;;;;;5018806;28;20401;-27
2022/08/05 09:08:06;;;;;;;;;;;;;;;;;;5018531;28;19910;-27
2022/08/05 09:10:32;;;;;;;;;;;;;;;;;;5018480;28;19920;-27
2022/08/05 09:12:58;;;;;;;;;;;;;;;;;;5018387;28;19909;-27
2022/08/05 09:15:24;;;;;;;;;;;;;;;;;;5018440;28;19928;-27
2022/08/05 09:17:50;;;;;;;;;;;;;;;;;;5018206;28;19917;-27
2022/08/05 09:20:17;;;;;;;;;;;;;;;;;;5018535;28;20008;-27
2022/08/05 09:22:43;;;;;;;;;;;;;;;;;;5018102;28;19914;-27
2022/08/05 09:25:09;;;;;;;;;;;;;;;;;;5018375;28;20040;-27
2022/08/05 09:27:35;;;;;;;;;;;;;;;;;;5018066;28;20021;-27
2022/08/05 09:30:01;;;;;;;;;;;;;;;;;;5018081;28;20360;-27
2022/08/05 09:32:27;;;;;;;;;;;;;;;;;;5018006;28;20369;-27
2022/08/05 09:34:53;;;;;;;;;;;;;;;;;;5018380;28;19909;-27
2022/08/05 09:37:19;;;;;;;;;;;;;;;;;;5017895;28;19925;-27
2022/08/05 09:39:45;;;;;;;;;;;;;;;;;;5018178;28;19918;-27
2022/08/05 09:42:11;;;;;;;;;;;;;;;;;;5017837;28;20302;-27
2022/08/05 09:44:37;;;;;;;;;;;;;;;;;;5018096;28;19910;-27
2022/08/05 09:47:03;;;;;;;;;;;;;;;;;;5017828;28;19924;-27
2022/08/05 09:49:29;;;;;;;;;;;;;;;;;;5017818;28;19910;-26
2022/08/05 09:51:55;;;;;;;;;;;;;;;;;;5017582;28;19913;-27
2022/08/05 09:54:21;;;;;;;;;;;;;;;;;;5017690;28;19968;-27
2022/08/05 09:56:47;;;;;;;;;;;;;;;;;;5017597;28;19917;-27
2022/08/05 09:59:15;;;;;;;;;;;;;;;;;;5017498;28;20288;-26
2022/08/05 10:01:41;;;;;;;;;;;;;;;;;;5017468;28;20266;-27
2022/08/05 10:04:07;;;;;;;;;;;;;;;;;;5017280;28;19929;-27
2022/08/05 10:06:33;;;;;;;;;;;;;;;;;;5017667;28;19913;-27
2022/08/05 10:08:59;;;;;;;;;;;;;;;;;;5017270;28;19962;-27
2022/08/05 10:11:25;;;;;;;;;;;;;;;;;;5017468;28;19914;-27
2022/08/05 10:13:52;;;;;;;;;;;;;;;;;;5016232;28;20382;-27
2022/08/05 10:16:18;;;;;;;;;;;;;;;;;;5017036;28;19924;-27
2022/08/05 10:18:44;;;;;;;;;;;;;;;;;;5017080;28;19913;-27
2022/08/05 10:21:10;;;;;;;;;;;;;;;;;;5017347;28;19917;-27
2022/08/05 10:23:36;;;;;;;;;;;;;;;;;;5016990;28;19910;-27
2022/08/05 10:26:02;;;;;;;;;;;;;;;;;;5017003;28;19971;-27
2022/08/05 10:28:29;;;;;;;;;;;;;;;;;;5017164;28;20387;-27
2022/08/05 10:30:55;;;;;;;;;;;;;;;;;;5016875;28;20256;-27
2022/08/05 10:33:22;;;;;;;;;;;;;;;;;;5017035;28;19921;-27
2022/08/05 10:35:48;;;;;;;;;;;;;;;;;;5017539;28;19959;-27
2022/08/05 10:38:14;;;;;;;;;;;;;;;;;;5016931;28;19913;-27
2022/08/05 10:40:42;;;;;;;;;;;;;;;;;;5016708;28;20372;-27
2022/08/05 10:43:08;;;;;;;;;;;;;;;;;;5016858;28;20321;-27
2022/08/05 10:45:34;;;;;;;;;;;;;;;;;;5016635;28;19925;-27
2022/08/05 10:48:00;;;;;;;;;;;;;;;;;;5016532;28;20260;-27
2022/08/05 10:50:26;;;;;;;;;;;;;;;;;;5016947;28;19918;-27
2022/08/05 10:52:58;;;;;;;;;;;;;;;;;;5016592;28;20303;-26
2022/08/05 10:55:24;;;;;;;;;;;;;;;;;;5016448;28;20005;-27
2022/08/05 10:57:50;;;;;;;;;;;;;;;;;;5016490;28;19960;-27
2022/08/05 11:00:17;;;;;;;;;;;;;;;;;;5016378;28;19917;-27
2022/08/05 11:02:43;;;;;;;;;;;;;;;;;;5016085;28;19925;-27
2022/08/05 11:05:09;;;;;;;;;;;;;;;;;;5016393;28;19915;-27
2022/08/05 11:07:35;;;;;;;;;;;;;;;;;;5016271;28;19914;-27
2022/08/05 11:10:01;;;;;;;;;;;;;;;;;;5016273;28;19917;-27
2022/08/05 11:12:27;;;;;;;;;;;;;;;;;;5016365;28;19925;-27
2022/08/05 11:14:53;;;;;;;;;;;;;;;;;;5016505;28;19909;-27
2022/08/05 11:17:19;;;;;;;;;;;;;;;;;;5016176;28;20004;-27
2022/08/05 11:19:47;;;;;;;;;;;;;;;;;;5016031;28;19920;-27
2022/08/05 11:22:13;;;;;;;;;;;;;;;;;;5015899;28;19914;-27
2022/08/05 11:24:39;;;;;;;;;;;;;;;;;;5015967;28;19971;-27
2022/08/05 11:27:05;;;;;;;;;;;;;;;;;;5015893;28;19960;-27
2022/08/05 11:29:31;;;;;;;;;;;;;;;;;;5016088;28;19910;-28
2022/08/05 11:31:57;;;;;;;;;;;;;;;;;;5014817;28;20368;-27
2022/08/05 11:34:23;;;;;;;;;;;;;;;;;;5015704;28;19921;-27
2022/08/05 11:36:50;;;;;;;;;;;;;;;;;;5015703;28;19914;-28
2022/08/05 11:39:17;;;;;;;;;;;;;;;;;;5015683;28;20368;-27
2022/08/05 11:41:43;;;;;;;;;;;;;;;;;;5016110;28;19913;-27
2022/08/05 11:44:14;;;;;;;;;;;;;;;;;;5015487;28;19921;-27
2022/08/05 11:46:40;;;;;;;;;;;;;;;;;;5014656;28;19928;-27
2022/08/05 11:49:06;;;;;;;;;;;;;;;;;;5015565;28;19909;-27
2022/08/05 11:51:32;;;;;;;;;;;;;;;;;;5015516;28;20347;-27
2022/08/05 11:54:01;;;;;;;;;;;;;;;;;;5015443;28;19910;-27
2022/08/05 11:56:27;;;;;;;;;;;;;;;;;;5015401;28;19949;-28
2022/08/05 11:58:53;;;;;;;;;;;;;;;;;;5015516;28;20406;-28
2022/08/05 12:01:19;;;;;;;;;;;;;;;;;;5015341;28;19914;-27
2022/08/05 12:03:45;;;;;;;;;;;;;;;;;;5014950;28;19922;-27
2022/08/05 12:06:11;;;;;;;;;;;;;;;;;;5015203;28;19909;-27
2022/08/05 12:08:37;;;;;;;;;;;;;;;;;;5015468;28;19964;-27
2022/08/05 12:11:03;;;;;;;;;;;;;;;;;;5016035;28;19914;-27
2022/08/05 12:13:29;;;;;;;;;;;;;;;;;;5015162;28;20345;-27
2022/08/05 12:15:55;;;;;;;;;;;;;;;;;;5015542;28;19913;-27
2022/08/05 12:18:21;;;;;;;;;;;;;;;;;;5014992;28;19974;-27
2022/08/05 12:20:47;;;;;;;;;;;;;;;;;;5015265;28;19910;-27
2022/08/05 12:23:13;;;;;;;;;;;;;;;;;;5015866;28;19920;-27
2022/08/05 12:25:39;;;;;;;;;;;;;;;;;;5015239;28;20292;-27
2022/08/05 12:28:05;;;;;;;;;;;;;;;;;;5015112;28;19914;-27
2022/08/05 12:30:31;;;;;;;;;;;;;;;;;;5015197;28;19909;-27
2022/08/05 12:32:57;;;;;;;;;;;;;;;;;;5015016;28;19920;-27
2022/08/05 12:35:23;;;;;;;;;;;;;;;;;;5015855;28;19909;-26
2022/08/05 12:37:49;;;;;;;;;;;;;;;;;;5019079;28;19913;-27
2022/08/05 12:40:15;;;;;;;;;;;;;;;;;;5019248;28;19925;-28
2022/08/05 12:42:41;;;;;;;;;;;;;;;;;;5018966;28;19956;-27
2022/08/05 12:45:07;;;;;;;;;;;;;;;;;;5018842;28;20360;-28
2022/08/05 12:47:33;;;;;;;;;;;;;;;;;;5018800;28;19945;-28
2022/08/05 12:49:59;;;;;;;;;;;;;;;;;;5019088;28;19909;-28
2022/08/05 12:52:25;;;;;;;;;;;;;;;;;;5018709;28;19967;-27
2022/08/05 12:54:51;;;;;;;;;;;;;;;;;;5019023;28;20007;-28
2022/08/05 12:57:17;;;;;;;;;;;;;;;;;;5018445;28;19924;-28
2022/08/05 12:59:43;;;;;;;;;;;;;;;;;;5018496;28;19973;-27
2022/08/05 13:02:10;;;;;;;;;;;;;;;;;;5018498;28;19913;-27
2022/08/05 13:04:36;;;;;;;;;;;;;;;;;;5018803;28;19924;-27
2022/08/05 13:07:02;;;;;;;;;;;;;;;;;;5018464;28;20256;-27
2022/08/05 13:09:30;;;;;;;;;;;;;;;;;;5017594;28;21271;-27
2022/08/05 13:11:56;;;;;;;;;;;;;;;;;;5018606;28;19917;-27
2022/08/05 13:14:22;;;;;;;;;;;;;;;;;;5018231;28;19975;-27
2022/08/05 13:16:48;;;;;;;;;;;;;;;;;;5018446;28;19969;-27
2022/08/05 13:19:14;;;;;;;;;;;;;;;;;;5018081;28;19939;-27
2022/08/05 13:21:40;;;;;;;;;;;;;;;;;;5018072;28;19917;-27
2022/08/05 13:24:06;;;;;;;;;;;;;;;;;;5018253;28;19917;-27
2022/08/05 13:26:32;;;;;;;;;;;;;;;;;;5018374;28;20382;-27
2022/08/05 13:28:58;;;;;;;;;;;;;;;;;;5018065;28;20238;-27
2022/08/05 13:31:24;;;;;;;;;;;;;;;;;;5018234;28;19913;-27
2022/08/05 13:33:50;;;;;;;;;;;;;;;;;;5017801;28;19924;-27
2022/08/05 13:36:17;;;;;;;;;;;;;;;;;;5018168;28;20406;-27
2022/08/05 13:38:43;;;;;;;;;;;;;;;;;;5017801;28;20337;-27
2022/08/05 13:41:09;;;;;;;;;;;;;;;;;;5018225;28;19913;-27
2022/08/05 13:43:35;;;;;;;;;;;;;;;;;;5017856;28;20327;-27
2022/08/05 13:46:01;;;;;;;;;;;;;;;;;;5018032;28;20360;-27
2022/08/05 13:48:27;;;;;;;;;;;;;;;;;;5016335;28;19910;-27
2022/08/05 13:50:53;;;;;;;;;;;;;;;;;;5017921;28;19913;-27
2022/08/05 13:53:19;;;;;;;;;;;;;;;;;;5017493;28;20363;-27
2022/08/05 13:55:45;;;;;;;;;;;;;;;;;;5016547;28;19999;-27
2022/08/05 13:58:11;;;;;;;;;;;;;;;;;;5017765;28;19909;-27
2022/08/05 14:00:37;;;;;;;;;;;;;;;;;;5017409;28;19976;-27
2022/08/05 14:03:03;;;;;;;;;;;;;;;;;;5017273;28;19975;-29
2022/08/05 14:05:29;;;;;;;;;;;;;;;;;;5017508;28;19909;-27
2022/08/05 14:07:55;;;;;;;;;;;;;;;;;;5017492;28;20378;-27
2022/08/05 14:10:25;;;;;;;;;;;;;;;;;;5017395;28;19921;-28
2022/08/05 14:12:51;;;;;;;;;;;;;;;;;;5017253;28;19953;-29
2022/08/05 14:15:17;;;;;;;;;;;;;;;;;;5017297;28;19921;-29
2022/08/05 14:17:43;;;;;;;;;;;;;;;;;;5017271;28;19957;-28
2022/08/05 14:20:09;;;;;;;;;;;;;;;;;;5017150;28;19935;-28
2022/08/05 14:22:35;;;;;;;;;;;;;;;;;;5017389;28;19909;-29
2022/08/05 14:25:01;;;;;;;;;;;;;;;;;;5017160;28;19968;-28
2022/08/05 14:27:27;;;;;;;;;;;;;;;;;;5017041;28;19917;-28
2022/08/05 14:29:53;;;;;;;;;;;;;;;;;;5016976;28;20229;-28
2022/08/05 14:32:19;;;;;;;;;;;;;;;;;;5017084;28;19953;-29
2022/08/05 14:34:45;;;;;;;;;;;;;;;;;;5015921;28;19909;-29
2022/08/05 14:37:11;;;;;;;;;;;;;;;;;;5017177;28;19914;-28
2022/08/05 14:39:37;;;;;;;;;;;;;;;;;;5016805;28;20238;-28
2022/08/05 14:42:03;;;;;;;;;;;;;;;;;;5017049;28;20325;-29
2022/08/05 14:44:29;;;;;;;;;;;;;;;;;;5016724;28;19952;-28
2022/08/05 14:46:56;;;;;;;;;;;;;;;;;;5016682;28;19917;-28
2022/08/05 14:49:22;;;;;;;;;;;;;;;;;;5016667;28;20331;-28
2022/08/05 14:51:48;;;;;;;;;;;;;;;;;;5016477;28;19917;-28
2022/08/05 14:54:13;;;;;;;;;;;;;;;;;;5016615;28;19914;-28
2022/08/05 14:56:39;;;;;;;;;;;;;;;;;;5016512;28;19966;-29
2022/08/05 14:59:05;;;;;;;;;;;;;;;;;;5016105;28;20016;-26
2022/08/05 15:01:31;;;;;;;;;;;;;;;;;;5016417;28;19929;-28
2022/08/05 15:03:57;;;;;;;;;;;;;;;;;;5016084;28;19928;-28
2022/08/05 15:06:23;;;;;;;;;;;;;;;;;;5016773;28;20349;-28
2022/08/05 15:08:50;;;;;;;;;;;;;;;;;;5016233;28;20035;-29
2022/08/05 15:11:16;;;;;;;;;;;;;;;;;;5016238;28;19909;-28
2022/08/05 15:13:42;;;;;;;;;;;;;;;;;;5016200;28;20349;-29
2022/08/05 15:16:08;;;;;;;;;;;;;;;;;;5015266;28;19993;-28
2022/08/05 15:18:34;;;;;;;;;;;;;;;;;;5016352;28;20011;-28
2022/08/05 15:21:00;;;;;;;;;;;;;;;;;;5016096;28;19913;-28
2022/08/05 15:23:26;;;;;;;;;;;;;;;;;;5016024;28;19913;-29
2022/08/05 15:25:52;;;;;;;;;;;;;;;;;;5016326;28;19914;-28
2022/08/05 15:28:18;;;;;;;;;;;;;;;;;;5016045;28;19909;-27
2022/08/05 15:30:44;;;;;;;;;;;;;;;;;;5016232;28;19914;-27
2022/08/05 15:33:10;;;;;;;;;;;;;;;;;;5015825;28;20360;-27
2022/08/05 15:35:36;;;;;;;;;;;;;;;;;;5016069;28;19937;-27
2022/08/05 15:38:02;;;;;;;;;;;;;;;;;;5015858;28;20337;-27
2022/08/05 15:40:28;;;;;;;;;;;;;;;;;;5015688;28;20401;-27
2022/08/05 15:42:55;;;;;;;;;;;;;;;;;;5015687;28;19909;-28
2022/08/05 15:45:21;;;;;;;;;;;;;;;;;;5015687;28;19913;-27
2022/08/05 15:47:47;;;;;;;;;;;;;;;;;;5016131;28;20356;-28
2022/08/05 15:50:13;;;;;;;;;;;;;;;;;;5015611;28;19909;-27
2022/08/05 15:52:39;;;;;;;;;;;;;;;;;;5015783;28;19924;-27
2022/08/05 15:55:05;;;;;;;;;;;;;;;;;;5015595;28;19909;-27
2022/08/05 15:57:31;;;;;;;;;;;;;;;;;;5015473;28;19941;-27
2022/08/05 15:59:57;;;;;;;;;;;;;;;;;;5015562;28;19917;-27
2022/08/05 16:02:23;;;;;;;;;;;;;;;;;;5015334;28;19916;-28
2022/08/05 16:04:49;;;;;;;;;;;;;;;;;;5015721;28;19910;-27
2022/08/05 16:07:15;;;;;;;;;;;;;;;;;;5015426;28;19963;-27
2022/08/05 16:09:41;;;;;;;;;;;;;;;;;;5015105;28;19996;-28
2022/08/05 16:12:07;;;;;;;;;;;;;;;;;;5015103;28;19924;-27
2022/08/05 16:14:33;;;;;;;;;;;;;;;;;;5015574;28;20340;-28
2022/08/05 16:16:59;;;;;;;;;;;;;;;;;;5015167;28;20377;-28
2022/08/05 16:19:25;;;;;;;;;;;;;;;;;;5015410;28;19918;-28
2022/08/05 16:21:51;;;;;;;;;;;;;;;;;;5015132;28;20000;-27
2022/08/05 16:24:17;;;;;;;;;;;;;;;;;;5015187;28;20075;-27
2022/08/05 16:26:43;;;;;;;;;;;;;;;;;;5015372;28;19909;-27
2022/08/05 16:29:09;;;;;;;;;;;;;;;;;;5015406;28;20261;-28
2022/08/05 16:31:35;;;;;;;;;;;;;;;;;;5015192;28;19971;-28
2022/08/05 16:34:01;;;;;;;;;;;;;;;;;;5015017;28;19964;-27
2022/08/05 16:36:27;;;;;;;;;;;;;;;;;;5015138;28;19914;-28
2022/08/05 16:38:53;;;;;;;;;;;;;;;;;;5014945;28;19917;-27
2022/08/05 16:41:19;;;;;;;;;;;;;;;;;;5014923;28;19947;-28
2022/08/05 16:43:45;;;;;;;;;;;;;;;;;;5015195;28;20036;-28